Thunder radar more information blitzortung!


Radar de pluja more information rain snow radar


Visita la nostra xarxa de llocs de meteo:

Template documentation
and downloads

And another site



No particular awareness of the weather is required.    There are no Weather-warnings

Pagina Historial Weather Underground text

Diari Resum Novembre 18, 2017 Unitats:  Imperial    Mètric   Tant
« Previous Dia
SegĂźent Dia »
Diari Setmana Mensual Anual Personalitzada
  Maxima: Minima: Media:
Temperatura: 61.9 °F 39.2 °F 52.2 °F
Punt de rosada: 45.9 °F 25.2 °F 36.5 °F
Humitat: 65 % 45 % 55 %
Wind Speed: 5.8 mph 0 mph 1.9 mph
RĂ fegues de vent: 5.8 mph - -
Vent:- - SSW
Pression baro: 30.2 in 30.1 in -
Precipitacions: 0 in    
Historical Graphs
 
 
Dades de taula per Novembre 18, 2017
Temps Temperatura Punt de rosada Pression baro Vent Wind Speed RĂ fegues de vent Humitat Rainfall Rate (Hourly)
00:00 48.2 °F 27.9 °F 30.1 in WNW 1.2 mph   45 % 0 in
00:05 48 °F 28.2 °F 30.1 in West 1.4 mph   46 % 0 in
00:10 47.7 °F 27.9 °F 30.1 in West 1.2 mph   46 % 0 in
00:15 47.3 °F 27.5 °F 30.1 in Calm     46 % 0 in
00:25 41.4 °F 26.4 °F 30.1 in Calm   2 mph 55 % 0 in
00:35 41.2 °F 26.2 °F 30.1 in WSW 1 mph 2 mph 55 % 0 in
00:45 40.1 °F 25.2 °F 30.1 in WSW 2 mph 2 mph 55 % 0 in
00:55 40.1 °F 25.5 °F 30.1 in Calm   2 mph 56 % 0 in
01:05 40.1 °F 26.1 °F 30.1 in Calm   2 mph 57 % 0 in
01:15 40.1 °F 26.1 °F 30.1 in Calm   2 mph 57 % 0 in
01:25 39.9 °F 25.9 °F 30.1 in SW 2 mph 3 mph 57 % 0 in
01:35 39.2 °F 25.5 °F 30.1 in Calm   3 mph 58 % 0 in
01:45 39.6 °F 26.1 °F 30.1 in SW 2 mph 2 mph 58 % 0 in
01:55 39.6 °F 26.4 °F 30.1 in Calm   2 mph 59 % 0 in
02:05 39.9 °F 26.8 °F 30.1 in Calm   2 mph 59 % 0 in
02:15 40.6 °F 27.3 °F 30.1 in West 1 mph 2 mph 59 % 0 in
02:25 40.8 °F 27.7 °F 30.1 in NW 1 mph 1 mph 59 % 0 in
02:35 41.5 °F 28.8 °F 30.1 in NE 2 mph 2 mph 60 % 0 in
02:45 42.3 °F 28.9 °F 30.1 in NW 1 mph 2 mph 59 % 0 in
02:55 43.5 °F 30 °F 30.2 in North 2 mph 2 mph 59 % 0 in
03:05 44.4 °F 30.6 °F 30.2 in Calm   1 mph 58 % 0 in
03:15 45.5 °F 31.6 °F 30.1 in Calm   1 mph 58 % 0 in
03:25 45.7 °F 31.3 °F 30.2 in North 1 mph 3 mph 57 % 0 in
03:35 46.6 °F 31.6 °F 30.2 in North 1 mph 2 mph 56 % 0 in
03:45 46.2 °F 31.5 °F 30.2 in Calm   2 mph 56 % 0 in
03:55 46.8 °F 31.8 °F 30.2 in WSW 2 mph 3 mph 56 % 0 in
04:05 46.8 °F 31.8 °F 30.2 in SW 1 mph 3 mph 56 % 0 in
04:15 48.4 °F 33.8 °F 30.2 in SW 1 mph 3 mph 57 % 0 in
04:25 49.6 °F 34.5 °F 30.2 in SW 1 mph 3 mph 56 % 0 in
04:35 50.2 °F 34.5 °F 30.2 in SW 3 mph 3 mph 55 % 0 in
04:55 52.7 °F 36.5 °F 30.2 in SSE 1 mph 2 mph 54 % 0 in
05:05 53.2 °F 37 °F 30.2 in East 1 mph 2 mph 54 % 0 in
11:08 53.2 °F 36.5 °F 30.2 in North 3.5 mph 3.5 mph 53 % 0 in
11:09 53.2 °F 36.5 °F 30.2 in North 3.5 mph 3.5 mph 53 % 0 in
11:14 53.2 °F 36.5 °F 30.2 in North 3.5 mph 3.5 mph 53 % 0 in
11:19 53.4 °F 36.7 °F 30.2 in NNE 5.8 mph 5.8 mph 53 % 0 in
11:24 53.4 °F 36.7 °F 30.2 in NNW 4.6 mph 4.6 mph 53 % 0 in
11:29 53.4 °F 36.7 °F 30.2 in NW 5.8 mph 5.8 mph 53 % 0 in
11:34 54.3 °F 37 °F 30.2 in North 1.4 mph   52 % 0 in
11:39 54.7 °F 37.4 °F 30.2 in NNE 2.4 mph 2.4 mph 52 % 0 in
11:44 55 °F 37.8 °F 30.2 in North 3.5 mph 3.5 mph 52 % 0 in
11:49 55 °F 37.8 °F 30.2 in ESE 3.6 mph 3.6 mph 52 % 0 in
11:54 55.4 °F 38.1 °F 30.2 in East 3.5 mph 3.5 mph 52 % 0 in
11:59 55.8 °F 38.5 °F 30.2 in NNE 3.5 mph 3.5 mph 52 % 0 in
12:04 56.3 °F 38.8 °F 30.2 in NNW 2.3 mph 2.3 mph 52 % 0 in
12:09 56.7 °F 39.2 °F 30.2 in WNW 3.5 mph 3.5 mph 52 % 0 in
12:14 56.8 °F 39.4 °F 30.2 in NW 2.9 mph 2.9 mph 52 % 0 in
12:19 57.4 °F 39.9 °F 30.2 in NNE 1.6 mph 1.6 mph 52 % 0 in
12:24 57.9 °F 40.5 °F 30.2 in NNE 2.6 mph 2.6 mph 52 % 0 in
12:29 58.1 °F 40.6 °F 30.2 in NNW 3.5 mph 3.5 mph 52 % 0 in
12:34 58.5 °F 40.8 °F 30.2 in NE 2.3 mph 2.3 mph 52 % 0 in
12:39 58.5 °F 40.8 °F 30.2 in ENE 2.3 mph 2.3 mph 52 % 0 in
12:44 59 °F 41.4 °F 30.2 in ENE 3.5 mph 3.5 mph 52 % 0 in
12:49 59.2 °F 41.5 °F 30.2 in NE 3.6 mph 3.6 mph 52 % 0 in
12:51 59.2 °F 41.5 °F 30.2 in NNE 3.5 mph 3.5 mph 52 % 0 in
12:56 59.9 °F 41.7 °F 30.2 in WSW 2 mph   51 % 0 in
13:01 60.4 °F 42.6 °F 30.2 in NNE 2.3 mph 2.3 mph 52 % 0 in
13:06 60.3 °F 42.6 °F 30.2 in NE 2.3 mph 2.3 mph 52 % 0 in
13:11 60.4 °F 42.6 °F 30.2 in ESE 2.3 mph 2.3 mph 52 % 0 in
13:16 60.8 °F 43.2 °F 30.2 in SW 3.1 mph 3.1 mph 52 % 0 in
13:21 61.5 °F 43.7 °F 30.2 in SW 2.3 mph   52 % 0 in
13:26 61.5 °F 44.2 °F 30.2 in NW 1.2 mph 1.4 mph 53 % 0 in
13:31 61.2 °F 43.9 °F 30.2 in North 1.2 mph 1.2 mph 53 % 0 in
13:36 61.3 °F 44.1 °F 30.2 in NNE 1.2 mph   53 % 0 in
13:41 61.3 °F 44.1 °F 30.2 in NNW 2.3 mph 2.3 mph 53 % 0 in
13:46 61.7 °F 45 °F 30.2 in NNE 2 mph 2 mph 54 % 0 in
13:51 61.2 °F 44.4 °F 30.2 in NE 4.6 mph 4.6 mph 54 % 0 in
13:56 61 °F 44.8 °F 30.2 in SE 2.3 mph 2.3 mph 55 % 0 in
14:01 61 °F 44.8 °F 30.2 in ESE 3.5 mph 3.5 mph 55 % 0 in
14:06 60.8 °F 44.4 °F 30.2 in ESE 4.6 mph 4.6 mph 55 % 0 in
14:11 60.8 °F 45 °F 30.2 in ESE 3.6 mph 3.6 mph 56 % 0 in
14:16 60.8 °F 45 °F 30.2 in WSW 2 mph   56 % 0 in
14:21 61.2 °F 45.3 °F 30.2 in ESE 2.3 mph 2.3 mph 56 % 0 in
14:26 61.3 °F 45.5 °F 30.2 in ESE 2.4 mph 2.4 mph 56 % 0 in
14:31 61.5 °F 45.7 °F 30.2 in East 2.4 mph 2.4 mph 56 % 0 in
14:36 61.3 °F 45.5 °F 30.2 in NE 3.5 mph 3.5 mph 56 % 0 in
14:41 61.5 °F 45.7 °F 30.2 in East 3.6 mph 3.6 mph 56 % 0 in
14:46 61.3 °F 45.5 °F 30.2 in NNE 3.5 mph 3.5 mph 56 % 0 in
14:51 61.5 °F 45.7 °F 30.2 in SSE 2.9 mph 2.9 mph 56 % 0 in
14:56 61.7 °F 45.9 °F 30.2 in ESE 3.5 mph 3.5 mph 56 % 0 in
15:01 61.7 °F 45.9 °F 30.2 in NE 2.4 mph 2.4 mph 56 % 0 in
15:06 61.5 °F 45.7 °F 30.2 in ESE 2.6 mph 2.6 mph 56 % 0 in
15:11 61.5 °F 45.1 °F 30.2 in ENE 2.3 mph 2.3 mph 55 % 0 in
15:16 61.7 °F 45.9 °F 30.2 in NNE 2.6 mph 2.6 mph 56 % 0 in
15:21 61.7 °F 45.3 °F 30.2 in NE 2.3 mph 2.3 mph 55 % 0 in
15:26 61.9 °F 45.5 °F 30.2 in Calm     55 % 0 in
15:31 61.9 °F 45.5 °F 30.2 in ENE 2.4 mph 2.4 mph 55 % 0 in
15:36 61.7 °F 45.3 °F 30.2 in East 2.3 mph 2.3 mph 55 % 0 in
15:41 61.7 °F 45.3 °F 30.2 in SE 3.5 mph 3.5 mph 55 % 0 in
15:46 61.7 °F 45.3 °F 30.2 in East 2.3 mph 2.3 mph 55 % 0 in
15:51 61.9 °F 45.5 °F 30.2 in ENE 2.4 mph 2.4 mph 55 % 0 in
15:56 61.9 °F 45.5 °F 30.2 in ESE 2.3 mph 2.3 mph 55 % 0 in
16:01 61.7 °F 45.3 °F 30.2 in ESE 3.5 mph 3.5 mph 55 % 0 in
16:06 61.7 °F 45.3 °F 30.2 in ESE 2 mph 2 mph 55 % 0 in
16:11 61.7 °F 45.3 °F 30.2 in ESE 2.6 mph 2.6 mph 55 % 0 in
16:16 61.7 °F 45.3 °F 30.2 in ESE 2.6 mph 2.6 mph 55 % 0 in
16:21 61.5 °F 45.1 °F 30.2 in ESE 2.3 mph 2.3 mph 55 % 0 in
16:26 61.5 °F 45.1 °F 30.2 in East 2.3 mph 2.3 mph 55 % 0 in
16:31 61.5 °F 45.1 °F 30.2 in SE 2.4 mph 2.4 mph 55 % 0 in
16:36 61.7 °F 45.3 °F 30.2 in South 1.2 mph 1.2 mph 55 % 0 in
16:41 61.9 °F 45.5 °F 30.2 in SSE 2.6 mph   55 % 0 in
16:46 61.7 °F 45.3 °F 30.2 in South 1.2 mph 1.2 mph 55 % 0 in
16:51 61.7 °F 45.3 °F 30.2 in South 1.2 mph   55 % 0 in
16:56 61.5 °F 45.7 °F 30.2 in SSE 1.2 mph   56 % 0 in
17:01 61.3 °F 45.5 °F 30.2 in SE 2.3 mph 2.3 mph 56 % 0 in
17:06 61.2 °F 45 °F 30.2 in East 1.2 mph 1.2 mph 55 % 0 in
17:11 60.8 °F 45 °F 30.2 in East 1.2 mph 1.2 mph 56 % 0 in
17:16 60.6 °F 44.8 °F 30.2 in Calm     56 % 0 in
17:21 60.3 °F 44.4 °F 30.2 in Calm     56 % 0 in
17:26 59.9 °F 44.2 °F 30.2 in Calm     56 % 0 in
17:31 59.5 °F 44.2 °F 30.2 in WSW 1.4 mph 1.4 mph 57 % 0 in
17:36 59 °F 43.9 °F 30.2 in WSW 1.4 mph 1.4 mph 57 % 0 in
17:41 58.6 °F 43.3 °F 30.2 in WSW 2 mph 2 mph 57 % 0 in
17:46 57.9 °F 43.2 °F 30.2 in WSW 2.3 mph 2.3 mph 58 % 0 in
17:51 57.7 °F 43.2 °F 30.2 in WSW 1.2 mph 1.2 mph 58 % 0 in
17:56 57.2 °F 42.1 °F 30.2 in WNW 1.4 mph 1.4 mph 57 % 0 in
18:01 57 °F 41.5 °F 30.2 in WSW 3.5 mph 3.5 mph 56 % 0 in
18:03 57 °F 41.5 °F 30.2 in WNW 1.2 mph   56 % 0 in
18:08 56.7 °F 41.5 °F 30.2 in East 3.1 mph 3.1 mph 57 % 0 in
18:13 56.5 °F 41.9 °F 30.2 in WSW 2.9 mph 2.9 mph 58 % 0 in
18:18 56.3 °F 41.4 °F 30.2 in West 2 mph 2 mph 57 % 0 in
18:23 55.9 °F 40.8 °F 30.2 in WSW 2.3 mph 2.3 mph 57 % 0 in
18:28 55.6 °F 40.6 °F 30.2 in West 2.3 mph 2.3 mph 57 % 0 in
18:33 55.2 °F 39.7 °F 30.2 in West 2.3 mph 2.3 mph 56 % 0 in
18:38 55 °F 39.2 °F 30.2 in West 3.5 mph 3.5 mph 55 % 0 in
18:43 54.9 °F 38.5 °F 30.2 in SW 2.3 mph 2.3 mph 54 % 0 in
18:48 54.3 °F 37.9 °F 30.2 in SW 2 mph 2 mph 54 % 0 in
18:53 54 °F 37.2 °F 30.2 in SW 2.3 mph 2.3 mph 53 % 0 in
18:58 53.6 °F 36.9 °F 30.2 in SW 1.6 mph 1.6 mph 53 % 0 in
19:00 45.1 °F 30.7 °F 30.2 in NW 1 mph 2 mph 57 % 0 in
19:03 53.2 °F 36.5 °F 30.2 in SW 3.5 mph 3.5 mph 53 % 0 in
19:08 52.9 °F 36.1 °F 30.2 in SW 3.5 mph 3.5 mph 53 % 0 in
19:10 45 °F 31.1 °F 30.2 in North 1 mph 2 mph 58 % 0 in
19:13 52.7 °F 36 °F 30.2 in SW 2.3 mph 2.3 mph 53 % 0 in
19:18 52.3 °F 35.8 °F 30.2 in WSW 3.5 mph 3.5 mph 53 % 0 in
19:20 44.2 °F 30.4 °F 30.2 in Calm   1 mph 58 % 0 in
19:23 52.2 °F 35.4 °F 30.2 in SW 2.4 mph 2.4 mph 53 % 0 in
19:28 52 °F 35.4 °F 30.2 in WSW 2.3 mph 2.3 mph 53 % 0 in
19:33 52 °F 35.4 °F 30.2 in SW 2.4 mph 2.4 mph 53 % 0 in
19:38 51.8 °F 35.2 °F 30.2 in WSW 2.3 mph 2.3 mph 53 % 0 in
19:40 43.3 °F 30 °F 30.1 in Calm   2 mph 59 % 0 in
19:43 51.8 °F 35.2 °F 30.2 in WSW 2.3 mph   53 % 0 in
19:48 51.6 °F 35.1 °F 30.2 in Calm     53 % 0 in
19:50 43.2 °F 30.2 °F 30.1 in WSW 1 mph 1 mph 60 % 0 in
19:53 51.6 °F 35.1 °F 30.2 in East 2.3 mph 2.3 mph 53 % 0 in
19:58 51.4 °F 34.9 °F 30.2 in Calm     53 % 0 in
20:03 51.1 °F 34.5 °F 30.2 in WSW 2.3 mph 2.3 mph 53 % 0 in
20:08 50.9 °F 34.3 °F 30.2 in SW 1.4 mph 1.4 mph 53 % 0 in
20:10 42.4 °F 29.8 °F 30.1 in Calm   1 mph 61 % 0 in
20:13 50.9 °F 34.3 °F 30.2 in SW 2.3 mph 2.3 mph 53 % 0 in
20:18 50.7 °F 34.2 °F 30.2 in Calm     53 % 0 in
20:20 42.4 °F 29.8 °F 30.1 in WSW 1 mph 2 mph 61 % 0 in
20:23 50.4 °F 34 °F 30.2 in Calm     53 % 0 in
20:28 50.2 °F 33.6 °F 30.2 in WSW 2.6 mph 2.6 mph 53 % 0 in
20:30 42.8 °F 30.4 °F 30.1 in West 1 mph 2 mph 61 % 0 in
20:38 50 °F 33.4 °F 30.2 in SW 2.2 mph   53 % 0 in
20:40 42.8 °F 30.7 °F 30.1 in West 1 mph 3 mph 62 % 0 in
20:43 50 °F 33.4 °F 30.2 in West 1.2 mph 1.2 mph 53 % 0 in
20:48 49.8 °F 33.4 °F 30.2 in Calm     53 % 0 in
20:50 42.3 °F 30.2 °F 30.1 in West 2 mph 2 mph 62 % 0 in
20:53 49.6 °F 33.3 °F 30.2 in SW 0.9 mph   53 % 0 in
20:58 49.6 °F 33.3 °F 30.2 in SW 1.4 mph 1.4 mph 53 % 0 in
21:00 42.3 °F 30.2 °F 30.1 in WSW 2 mph 3 mph 62 % 0 in
21:03 49.1 °F 32.7 °F 30.2 in SW 2.3 mph 2.3 mph 53 % 0 in
21:08 48.9 °F 32.5 °F 30.2 in SW 2.3 mph 2.3 mph 53 % 0 in
21:10 42.1 °F 30 °F 30.2 in WSW 2 mph 3 mph 62 % 0 in
21:13 48.9 °F 32.5 °F 30.2 in SW 1.4 mph 1.4 mph 53 % 0 in
21:18 48.9 °F 32.5 °F 30.2 in WSW 1.6 mph 1.6 mph 53 % 0 in
21:20 42.4 °F 30.4 °F 30.2 in WSW 1 mph 3 mph 62 % 0 in
21:23 48.9 °F 32.5 °F 30.2 in West 2.4 mph 2.4 mph 53 % 0 in
21:28 49.1 °F 32.7 °F 30.2 in West 1.4 mph 1.4 mph 53 % 0 in
21:30 42.8 °F 30.7 °F 30.2 in Calm   2 mph 62 % 0 in
21:33 48.9 °F 32.5 °F 30.2 in Calm     53 % 0 in
21:38 48.9 °F 32.5 °F 30.2 in West 2.3 mph 2.3 mph 53 % 0 in
21:40 42.6 °F 30.9 °F 30.2 in WSW 1 mph 2 mph 63 % 0 in
21:43 49.1 °F 32.7 °F 30.2 in West 1.2 mph 1.2 mph 53 % 0 in
21:48 49.1 °F 32.7 °F 30.2 in Calm     53 % 0 in
21:50 41.7 °F 30 °F 30.2 in WSW 2 mph 2 mph 63 % 0 in
21:53 49.1 °F 32.7 °F 30.2 in West 1.2 mph 1.2 mph 53 % 0 in
21:58 48.9 °F 32.5 °F 30.2 in WSW 2.3 mph 2.3 mph 53 % 0 in
22:00 42.1 °F 30.4 °F 30.2 in WSW 1 mph 2 mph 63 % 0 in
22:03 48.4 °F 32 °F 30.2 in SW 2.4 mph 2.4 mph 53 % 0 in
22:08 48 °F 31.6 °F 30.2 in WSW 2.3 mph 2.3 mph 53 % 0 in
22:10 42.1 °F 30.4 °F 30.2 in West 1 mph 2 mph 63 % 0 in
22:13 47.8 °F 31.5 °F 30.2 in WSW 2.3 mph 2.3 mph 53 % 0 in
22:18 47.8 °F 32 °F 30.2 in WNW 2 mph 2 mph 54 % 0 in
22:20 41.9 °F 30.2 °F 30.2 in WSW 2 mph 2 mph 63 % 0 in
22:24 47.8 °F 32 °F 30.2 in SW 2.4 mph 2.4 mph 54 % 0 in
22:29 47.7 °F 31.8 °F 30.2 in SW 1.4 mph 1.6 mph 54 % 0 in
22:30 41.9 °F 30.6 °F 30.2 in Calm   2 mph 64 % 0 in
22:34 47.3 °F 31.5 °F 30.2 in SW 3.5 mph 3.5 mph 54 % 0 in
22:39 47.3 °F 31.5 °F 30.2 in WSW 3.5 mph 3.5 mph 54 % 0 in
22:40 41.9 °F 30.6 °F 30.1 in WSW 1 mph 2 mph 64 % 0 in
22:44 47.1 °F 31.3 °F 30.2 in SW 1.4 mph 1.4 mph 54 % 0 in
22:49 47.1 °F 31.3 °F 30.2 in SW 2.3 mph 2.3 mph 54 % 0 in
22:50 42.1 °F 30.7 °F 30.1 in Calm   2 mph 64 % 0 in
22:54 47.1 °F 31.3 °F 30.2 in WSW 1.2 mph 1.2 mph 54 % 0 in
22:59 46.9 °F 31.1 °F 30.2 in Calm     54 % 0 in
23:04 47.1 °F 31.3 °F 30.2 in NW 2.3 mph 2.3 mph 54 % 0 in
23:09 47.1 °F 31.3 °F 30.2 in NNW 1.4 mph 1.4 mph 54 % 0 in
23:10 41.4 °F 30 °F 30.1 in NNW 1 mph 1 mph 64 % 0 in
23:14 46.9 °F 31.1 °F 30.2 in NNW 1.2 mph 1.2 mph 54 % 0 in
23:19 46 °F 30.4 °F 30.2 in SW 2.3 mph 2.3 mph 54 % 0 in
23:20 41.2 °F 30.4 °F 30.1 in Calm   2 mph 65 % 0 in
23:24 45.3 °F 29.7 °F 30.2 in WSW 2.3 mph 2.3 mph 54 % 0 in
23:29 45.1 °F 29.8 °F 30.2 in WSW 2.3 mph 2.3 mph 55 % 0 in
23:34 45.5 °F 30.4 °F 30.2 in WSW 2.3 mph 2.3 mph 55 % 0 in
23:39 45.5 °F 30.4 °F 30.2 in Calm     55 % 0 in
23:44 45.3 °F 30 °F 30.2 in Calm     55 % 0 in
23:49 45.1 °F 30.4 °F 30.2 in Calm     56 % 0 in
23:50 41 °F 30 °F 30.1 in NNW 1 mph 3 mph 65 % 0 in
23:54 45 °F 30.2 °F 30.2 in SSW 2 mph   56 % 0 in
23:59 45 °F 30.2 °F 30.2 in SW 2.4 mph 2.4 mph 56 % 0 in
Meteo Sesrovires
Elogis d' Weather Underground - 3.5 mb

Guio original per  Jim McMurry - jmcmurry@mwt.net Adaptat per a la plantilla per  Wim van der Kuil - Leuven-Template.eu

Trobareu la nostra informacio del temps tambe a:

Weather Underground

AWEKAS